Mariane — LZG2356 — position and weather

sailwx.info

Track history (hours):
 
Tides and Currents Weather Stations Pressure Air Temp Water Temp Dewpoint Dewpoint Depression Visibility Wind Speed Wind Dir Waves Ship Positions

Mariane

Last reported at 2018-Feb-15 07:37 UTC. Time now 2018-Apr-20 05:11 UTC.
Position N 44°30' E 022°12'.
Warning: this ship's position is months out of date.

; draft 2.1 m.

MMSI: 207072356.

Date/timePositionNaut miles runAvg speedWind from/ knotsBaromVisibWave heightAir tempDewpointWater temp
2018-Feb-15 07:37N 44°30' E 022°12'1 7.7
2018-Feb-15 07:30N 44°29' E 022°11'3 6.4
2018-Feb-15 07:00N 44°29' E 022°07'4 7.4
2018-Feb-15 06:30N 44°32' E 022°04'3 6.8
2018-Feb-15 06:00N 44°35' E 022°02'15 6.4
2018-Feb-15 03:41N 44°40' E 021°42'1 6.2
2018-Feb-15 03:31N 44°40' E 021°41'4 6.0
2018-Feb-15 02:55N 44°43' E 021°37'2 3.6
2018-Feb-15 02:31N 44°44' E 021°36'0 0.1
2018-Feb-15 02:01N 44°44' E 021°36'0 0.1
2018-Feb-15 01:31N 44°44' E 021°36'2 3.0
2018-Feb-15 01:01N 44°45' E 021°35'3 6.1
2018-Feb-15 00:30N 44°46' E 021°31'  
2018-Feb-11 07:42N 48°04' E 017°09'1 4.2
2018-Feb-11 07:30N 48°05' E 017°09'0 0.0
2018-Feb-11 07:00N 48°05' E 017°09'0 0.0
2018-Feb-11 06:30N 48°05' E 017°09'0 0.0
2018-Feb-11 06:00N 48°05' E 017°09'0 0.0
2018-Feb-11 05:30N 48°05' E 017°09'0 0.0
2018-Feb-11 05:00N 48°05' E 017°09'0 0.0
2018-Feb-11 04:30N 48°05' E 017°09'0 0.0
2018-Feb-11 04:00N 48°05' E 017°09'0 0.0
2018-Feb-11 03:30N 48°05' E 017°09'0 0.0
2018-Feb-11 03:00N 48°05' E 017°09'0 0.0
2018-Feb-11 02:30N 48°05' E 017°09'0 0.0
2018-Feb-11 02:00N 48°05' E 017°09'0 0.0
2018-Feb-11 01:30N 48°05' E 017°09'0 0.0
2018-Feb-11 01:00N 48°05' E 017°09'0 0.0
2018-Feb-11 00:30N 48°05' E 017°09'0 0.0
2018-Feb-11 00:00N 48°05' E 017°09'0 0.0
2018-Feb-10 23:30N 48°05' E 017°09'0 0.0
2018-Feb-10 23:00N 48°05' E 017°09'0 0.0
2018-Feb-10 22:30N 48°05' E 017°09'0 0.0
2018-Feb-10 22:00N 48°05' E 017°09'0 0.0
2018-Feb-10 21:30N 48°05' E 017°09'0 0.0
2018-Feb-10 21:00N 48°05' E 017°09'0 0.0
2018-Feb-10 20:30N 48°05' E 017°09'0 0.0
2018-Feb-10 20:00N 48°05' E 017°09'0 0.0
2018-Feb-10 19:30N 48°05' E 017°09'0 0.0
2018-Feb-10 19:00N 48°05' E 017°09'0 0.0
2018-Feb-10 18:30N 48°05' E 017°09'0 0.0
2018-Feb-10 18:00N 48°05' E 017°09'0 0.0
2018-Feb-10 17:30N 48°05' E 017°09'0 0.0
2018-Feb-10 17:00N 48°05' E 017°09'0 0.0
2018-Feb-10 16:30N 48°05' E 017°09'0 0.0
2018-Feb-10 16:00N 48°05' E 017°09'0 0.0
2018-Feb-10 15:30N 48°05' E 017°09'0 0.0
2018-Feb-10 15:00N 48°05' E 017°09'0 0.0
2018-Feb-10 14:30N 48°05' E 017°09'0 0.0
2018-Feb-10 14:00N 48°05' E 017°09'0 0.0
2018-Feb-10 13:30N 48°05' E 017°09'0 0.0
2018-Feb-10 13:00N 48°05' E 017°09'0 0.0
2018-Feb-10 12:30N 48°05' E 017°09'0 0.0
2018-Feb-10 12:00N 48°05' E 017°09'0 0.0
2018-Feb-10 11:30N 48°05' E 017°09'0 0.0
2018-Feb-10 11:00N 48°05' E 017°09'0 0.0
2018-Feb-10 10:30N 48°05' E 017°09'0 0.0
2018-Feb-10 10:00N 48°05' E 017°09'0 0.4
2018-Feb-10 09:30N 48°05' E 017°09'3 6.6
2018-Feb-10 09:00N 48°08' E 017°06'5 9.8
2018-Feb-10 08:29N 48°10' E 016°59'4 9.4
2018-Feb-10 08:00N 48°08' E 016°53'  
Track history (hours):
 
Tides and Currents Weather Stations Pressure Air Temp Water Temp Dewpoint Dewpoint Depression Visibility Wind Speed Wind Dir Waves Ship Positions

Mariane

Last reported at 2018-Feb-15 07:37 UTC. Time now 2018-Apr-20 05:11 UTC.
Position N 44°30' E 022°12'.
Warning: this ship's position is months out of date.

; draft 2.1 m.

MMSI: 207072356.

Date/timePositionNaut miles runAvg speedWind from/ knotsBaromVisibWave heightAir tempDewpointWater temp
2018-Feb-15 07:37N 44°30' E 022°12'1 7.7
2018-Feb-15 07:30N 44°29' E 022°11'3 6.4
2018-Feb-15 07:00N 44°29' E 022°07'4 7.4
2018-Feb-15 06:30N 44°32' E 022°04'3 6.8
2018-Feb-15 06:00N 44°35' E 022°02'15 6.4
2018-Feb-15 03:41N 44°40' E 021°42'1 6.2
2018-Feb-15 03:31N 44°40' E 021°41'4 6.0
2018-Feb-15 02:55N 44°43' E 021°37'2 3.6
2018-Feb-15 02:31N 44°44' E 021°36'0 0.1
2018-Feb-15 02:01N 44°44' E 021°36'0 0.1
2018-Feb-15 01:31N 44°44' E 021°36'2 3.0
2018-Feb-15 01:01N 44°45' E 021°35'3 6.1
2018-Feb-15 00:30N 44°46' E 021°31'  
2018-Feb-11 07:42N 48°04' E 017°09'1 4.2
2018-Feb-11 07:30N 48°05' E 017°09'0 0.0
2018-Feb-11 07:00N 48°05' E 017°09'0 0.0
2018-Feb-11 06:30N 48°05' E 017°09'0 0.0
2018-Feb-11 06:00N 48°05' E 017°09'0 0.0
2018-Feb-11 05:30N 48°05' E 017°09'0 0.0
2018-Feb-11 05:00N 48°05' E 017°09'0 0.0
2018-Feb-11 04:30N 48°05' E 017°09'0 0.0
2018-Feb-11 04:00N 48°05' E 017°09'0 0.0
2018-Feb-11 03:30N 48°05' E 017°09'0 0.0
2018-Feb-11 03:00N 48°05' E 017°09'0 0.0
2018-Feb-11 02:30N 48°05' E 017°09'0 0.0
2018-Feb-11 02:00N 48°05' E 017°09'0 0.0
2018-Feb-11 01:30N 48°05' E 017°09'0 0.0
2018-Feb-11 01:00N 48°05' E 017°09'0 0.0
2018-Feb-11 00:30N 48°05' E 017°09'0 0.0
2018-Feb-11 00:00N 48°05' E 017°09'0 0.0
2018-Feb-10 23:30N 48°05' E 017°09'0 0.0
2018-Feb-10 23:00N 48°05' E 017°09'0 0.0
2018-Feb-10 22:30N 48°05' E 017°09'0 0.0
2018-Feb-10 22:00N 48°05' E 017°09'0 0.0
2018-Feb-10 21:30N 48°05' E 017°09'0 0.0
2018-Feb-10 21:00N 48°05' E 017°09'0 0.0
2018-Feb-10 20:30N 48°05' E 017°09'0 0.0
2018-Feb-10 20:00N 48°05' E 017°09'0 0.0
2018-Feb-10 19:30N 48°05' E 017°09'0 0.0
2018-Feb-10 19:00N 48°05' E 017°09'0 0.0
2018-Feb-10 18:30N 48°05' E 017°09'0 0.0
2018-Feb-10 18:00N 48°05' E 017°09'0 0.0
2018-Feb-10 17:30N 48°05' E 017°09'0 0.0
2018-Feb-10 17:00N 48°05' E 017°09'0 0.0
2018-Feb-10 16:30N 48°05' E 017°09'0 0.0
2018-Feb-10 16:00N 48°05' E 017°09'0 0.0
2018-Feb-10 15:30N 48°05' E 017°09'0 0.0
2018-Feb-10 15:00N 48°05' E 017°09'0 0.0
2018-Feb-10 14:30N 48°05' E 017°09'0 0.0
2018-Feb-10 14:00N 48°05' E 017°09'0 0.0
2018-Feb-10 13:30N 48°05' E 017°09'0 0.0
2018-Feb-10 13:00N 48°05' E 017°09'0 0.0
2018-Feb-10 12:30N 48°05' E 017°09'0 0.0
2018-Feb-10 12:00N 48°05' E 017°09'0 0.0
2018-Feb-10 11:30N 48°05' E 017°09'0 0.0
2018-Feb-10 11:00N 48°05' E 017°09'0 0.0
2018-Feb-10 10:30N 48°05' E 017°09'0 0.0
2018-Feb-10 10:00N 48°05' E 017°09'0 0.4
2018-Feb-10 09:30N 48°05' E 017°09'3 6.6
2018-Feb-10 09:00N 48°08' E 017°06'5 9.8
2018-Feb-10 08:29N 48°10' E 016°59'4 9.4
2018-Feb-10 08:00N 48°08' E 016°53'  

Dump ship's entire track history